sensor_id;sensor_type;location;lat;lon;timestamp;temperature;humidity
28677;DHT22;15858;48.338;11.078;2022-07-29T00:02:08;18.50;99.90
28677;DHT22;15858;48.338;11.078;2022-07-29T00:04:36;18.60;99.90
28677;DHT22;15858;48.338;11.078;2022-07-29T00:07:03;18.50;99.90
28677;DHT22;15858;48.338;11.078;2022-07-29T00:09:31;18.50;99.90
28677;DHT22;15858;48.338;11.078;2022-07-29T00:12:00;18.50;99.90
28677;DHT22;15858;48.338;11.078;2022-07-29T00:14:27;18.50;99.90
28677;DHT22;15858;48.338;11.078;2022-07-29T00:16:55;18.50;99.90
28677;DHT22;15858;48.338;11.078;2022-07-29T00:19:22;18.60;99.90
28677;DHT22;15858;48.338;11.078;2022-07-29T00:21:49;18.50;99.90
28677;DHT22;15858;48.338;11.078;2022-07-29T00:24:15;18.60;99.90
28677;DHT22;15858;48.338;11.078;2022-07-29T00:26:42;18.50;99.90
28677;DHT22;15858;48.338;11.078;2022-07-29T00:29:09;18.50;99.90
28677;DHT22;15858;48.338;11.078;2022-07-29T00:31:56;18.50;99.90
28677;DHT22;15858;48.338;11.078;2022-07-29T00:34:22;18.50;99.90
28677;DHT22;15858;48.338;11.078;2022-07-29T00:36:49;18.40;99.90
28677;DHT22;15858;48.338;11.078;2022-07-29T00:39:16;18.40;99.90
28677;DHT22;15858;48.338;11.078;2022-07-29T00:41:42;18.40;99.90
28677;DHT22;15858;48.338;11.078;2022-07-29T00:44:09;18.30;99.90
28677;DHT22;15858;48.338;11.078;2022-07-29T00:46:36;18.30;99.90
28677;DHT22;15858;48.338;11.078;2022-07-29T00:49:03;18.30;99.90
28677;DHT22;15858;48.338;11.078;2022-07-29T00:51:30;18.30;99.90
28677;DHT22;15858;48.338;11.078;2022-07-29T00:53:59;18.40;99.90
28677;DHT22;15858;48.338;11.078;2022-07-29T00:56:26;18.30;99.90
28677;DHT22;15858;48.338;11.078;2022-07-29T00:58:54;18.30;99.90
28677;DHT22;15858;48.338;11.078;2022-07-29T01:01:21;18.30;99.90
28677;DHT22;15858;48.338;11.078;2022-07-29T01:03:48;18.30;99.90
28677;DHT22;15858;48.338;11.078;2022-07-29T01:06:17;18.30;99.90
28677;DHT22;15858;48.338;11.078;2022-07-29T01:08:45;18.20;99.90
28677;DHT22;15858;48.338;11.078;2022-07-29T01:11:14;18.20;99.90
28677;DHT22;15858;48.338;11.078;2022-07-29T01:13:43;18.20;99.90
28677;DHT22;15858;48.338;11.078;2022-07-29T01:16:15;18.20;99.90
28677;DHT22;15858;48.338;11.078;2022-07-29T01:18:46;18.20;99.90
28677;DHT22;15858;48.338;11.078;2022-07-29T01:21:24;18.20;99.90
28677;DHT22;15858;48.338;11.078;2022-07-29T01:27:06;18.20;99.90
28677;DHT22;15858;48.338;11.078;2022-07-29T01:29:45;18.30;99.90
28677;DHT22;15858;48.338;11.078;2022-07-29T01:32:20;18.30;99.90
28677;DHT22;15858;48.338;11.078;2022-07-29T01:37:39;18.40;99.90
28677;DHT22;15858;48.338;11.078;2022-07-29T01:40:43;18.30;99.90
28677;DHT22;15858;48.338;11.078;2022-07-29T01:43:15;18.30;99.90
28677;DHT22;15858;48.338;11.078;2022-07-29T01:45:49;18.20;99.90
28677;DHT22;15858;48.338;11.078;2022-07-29T01:48:31;18.20;99.90
28677;DHT22;15858;48.338;11.078;2022-07-29T01:56:32;18.20;99.90
28677;DHT22;15858;48.338;11.078;2022-07-29T01:59:01;18.20;99.90
28677;DHT22;15858;48.338;11.078;2022-07-29T02:01:31;18.20;99.90
28677;DHT22;15858;48.338;11.078;2022-07-29T02:04:01;18.10;99.90
28677;DHT22;15858;48.338;11.078;2022-07-29T02:06:31;18.10;99.90
28677;DHT22;15858;48.338;11.078;2022-07-29T02:08:59;18.20;99.90
28677;DHT22;15858;48.338;11.078;2022-07-29T02:11:26;18.10;99.90
28677;DHT22;15858;48.338;11.078;2022-07-29T02:13:54;18.10;99.90
28677;DHT22;15858;48.338;11.078;2022-07-29T02:16:23;18.10;99.90
28677;DHT22;15858;48.338;11.078;2022-07-29T02:18:53;18.10;99.90
28677;DHT22;15858;48.338;11.078;2022-07-29T02:21:24;18.00;99.90
28677;DHT22;15858;48.338;11.078;2022-07-29T02:23:52;18.00;99.90
28677;DHT22;15858;48.338;11.078;2022-07-29T02:26:20;17.90;99.90
28677;DHT22;15858;48.338;11.078;2022-07-29T02:28:51;17.90;99.90
28677;DHT22;15858;48.338;11.078;2022-07-29T02:31:21;17.90;99.90
28677;DHT22;15858;48.338;11.078;2022-07-29T02:33:49;17.80;99.90
28677;DHT22;15858;48.338;11.078;2022-07-29T02:36:16;17.90;99.90
28677;DHT22;15858;48.338;11.078;2022-07-29T02:38:44;17.80;99.90
28677;DHT22;15858;48.338;11.078;2022-07-29T02:41:15;17.90;99.90
28677;DHT22;15858;48.338;11.078;2022-07-29T02:43:44;17.90;99.90
28677;DHT22;15858;48.338;11.078;2022-07-29T02:46:15;18.00;99.90
28677;DHT22;15858;48.338;11.078;2022-07-29T02:51:53;18.00;99.90
28677;DHT22;15858;48.338;11.078;2022-07-29T02:54:41;18.10;99.90
28677;DHT22;15858;48.338;11.078;2022-07-29T02:57:21;18.00;99.90
28677;DHT22;15858;48.338;11.078;2022-07-29T02:59:51;18.10;99.90
28677;DHT22;15858;48.338;11.078;2022-07-29T03:02:20;18.10;99.90
28677;DHT22;15858;48.338;11.078;2022-07-29T03:04:48;18.00;99.90
28677;DHT22;15858;48.338;11.078;2022-07-29T03:07:18;18.00;99.90
28677;DHT22;15858;48.338;11.078;2022-07-29T03:09:46;17.90;99.90
28677;DHT22;15858;48.338;11.078;2022-07-29T03:12:14;17.90;99.90
28677;DHT22;15858;48.338;11.078;2022-07-29T03:14:41;17.80;99.90
28677;DHT22;15858;48.338;11.078;2022-07-29T03:17:09;17.80;99.90
28677;DHT22;15858;48.338;11.078;2022-07-29T03:19:36;17.90;99.90
28677;DHT22;15858;48.338;11.078;2022-07-29T03:22:03;17.90;99.90
28677;DHT22;15858;48.338;11.078;2022-07-29T03:24:35;17.80;99.90
28677;DHT22;15858;48.338;11.078;2022-07-29T03:27:03;17.80;99.90
28677;DHT22;15858;48.338;11.078;2022-07-29T03:29:31;17.80;99.90
28677;DHT22;15858;48.338;11.078;2022-07-29T03:32:03;17.80;99.90
28677;DHT22;15858;48.338;11.078;2022-07-29T03:34:34;17.70;99.90
28677;DHT22;15858;48.338;11.078;2022-07-29T03:37:01;17.70;99.90
28677;DHT22;15858;48.338;11.078;2022-07-29T03:39:33;17.70;99.90
28677;DHT22;15858;48.338;11.078;2022-07-29T03:42:01;17.80;99.90
28677;DHT22;15858;48.338;11.078;2022-07-29T03:44:28;17.80;99.90
28677;DHT22;15858;48.338;11.078;2022-07-29T03:46:57;17.80;99.90
28677;DHT22;15858;48.338;11.078;2022-07-29T03:49:26;17.70;99.90
28677;DHT22;15858;48.338;11.078;2022-07-29T03:51:54;17.70;99.90
28677;DHT22;15858;48.338;11.078;2022-07-29T03:54:21;17.70;99.90
28677;DHT22;15858;48.338;11.078;2022-07-29T03:56:49;17.70;99.90
28677;DHT22;15858;48.338;11.078;2022-07-29T03:59:19;17.60;99.90
28677;DHT22;15858;48.338;11.078;2022-07-29T04:01:47;17.50;99.90
28677;DHT22;15858;48.338;11.078;2022-07-29T04:04:14;17.50;99.90
28677;DHT22;15858;48.338;11.078;2022-07-29T04:06:43;17.50;99.90
28677;DHT22;15858;48.338;11.078;2022-07-29T04:09:11;17.50;99.90
28677;DHT22;15858;48.338;11.078;2022-07-29T04:11:40;17.50;99.90
28677;DHT22;15858;48.338;11.078;2022-07-29T04:14:27;17.50;99.90
28677;DHT22;15858;48.338;11.078;2022-07-29T04:16:54;17.50;99.90
28677;DHT22;15858;48.338;11.078;2022-07-29T04:19:20;17.50;99.90
28677;DHT22;15858;48.338;11.078;2022-07-29T04:21:47;17.40;99.90
28677;DHT22;15858;48.338;11.078;2022-07-29T04:24:14;17.30;99.90
28677;DHT22;15858;48.338;11.078;2022-07-29T04:26:42;17.30;99.90
28677;DHT22;15858;48.338;11.078;2022-07-29T04:29:09;17.30;99.90
28677;DHT22;15858;48.338;11.078;2022-07-29T04:31:35;17.30;99.90
28677;DHT22;15858;48.338;11.078;2022-07-29T04:34:02;17.30;99.90
28677;DHT22;15858;48.338;11.078;2022-07-29T04:36:29;17.40;99.90
28677;DHT22;15858;48.338;11.078;2022-07-29T04:38:56;17.40;99.90
28677;DHT22;15858;48.338;11.078;2022-07-29T04:41:22;17.40;99.90
28677;DHT22;15858;48.338;11.078;2022-07-29T04:43:58;17.30;99.90
28677;DHT22;15858;48.338;11.078;2022-07-29T04:46:25;17.30;99.90
28677;DHT22;15858;48.338;11.078;2022-07-29T04:48:52;17.40;99.90
28677;DHT22;15858;48.338;11.078;2022-07-29T04:51:18;17.40;99.90
28677;DHT22;15858;48.338;11.078;2022-07-29T04:53:45;17.40;99.90
28677;DHT22;15858;48.338;11.078;2022-07-29T04:56:11;17.50;99.90
28677;DHT22;15858;48.338;11.078;2022-07-29T04:58:38;17.60;99.90
28677;DHT22;15858;48.338;11.078;2022-07-29T05:01:05;17.60;99.90
28677;DHT22;15858;48.338;11.078;2022-07-29T05:03:31;17.70;99.90
28677;DHT22;15858;48.338;11.078;2022-07-29T05:05:58;17.70;99.90
28677;DHT22;15858;48.338;11.078;2022-07-29T05:08:25;17.70;99.90
28677;DHT22;15858;48.338;11.078;2022-07-29T05:10:51;17.80;99.90
28677;DHT22;15858;48.338;11.078;2022-07-29T05:13:18;17.90;99.90
28677;DHT22;15858;48.338;11.078;2022-07-29T05:15:45;18.10;99.90
28677;DHT22;15858;48.338;11.078;2022-07-29T05:18:11;18.20;99.90
28677;DHT22;15858;48.338;11.078;2022-07-29T05:20:38;18.20;99.90
28677;DHT22;15858;48.338;11.078;2022-07-29T05:23:05;18.30;99.90
28677;DHT22;15858;48.338;11.078;2022-07-29T05:25:31;18.60;99.90
28677;DHT22;15858;48.338;11.078;2022-07-29T05:28:10;18.60;99.90
28677;DHT22;15858;48.338;11.078;2022-07-29T05:30:37;18.60;99.90
28677;DHT22;15858;48.338;11.078;2022-07-29T05:33:04;18.60;99.90
28677;DHT22;15858;48.338;11.078;2022-07-29T05:35:31;18.60;99.90
28677;DHT22;15858;48.338;11.078;2022-07-29T05:37:58;18.80;99.90
28677;DHT22;15858;48.338;11.078;2022-07-29T05:40:24;18.90;99.90
28677;DHT22;15858;48.338;11.078;2022-07-29T05:42:51;18.90;99.90
28677;DHT22;15858;48.338;11.078;2022-07-29T05:45:18;18.80;99.90
28677;DHT22;15858;48.338;11.078;2022-07-29T05:47:44;18.80;99.90
28677;DHT22;15858;48.338;11.078;2022-07-29T05:50:11;19.00;99.90
28677;DHT22;15858;48.338;11.078;2022-07-29T05:52:38;18.90;99.90
28677;DHT22;15858;48.338;11.078;2022-07-29T05:55:05;19.00;99.90
28677;DHT22;15858;48.338;11.078;2022-07-29T05:57:32;19.00;99.90
28677;DHT22;15858;48.338;11.078;2022-07-29T05:59:59;19.00;99.90
28677;DHT22;15858;48.338;11.078;2022-07-29T06:02:25;19.10;99.90
28677;DHT22;15858;48.338;11.078;2022-07-29T06:04:52;19.20;99.90
28677;DHT22;15858;48.338;11.078;2022-07-29T06:07:19;19.20;99.90
28677;DHT22;15858;48.338;11.078;2022-07-29T06:09:46;19.30;99.90
28677;DHT22;15858;48.338;11.078;2022-07-29T06:12:13;19.40;99.90
28677;DHT22;15858;48.338;11.078;2022-07-29T06:14:39;19.60;99.90
28677;DHT22;15858;48.338;11.078;2022-07-29T06:17:06;19.70;99.90
28677;DHT22;15858;48.338;11.078;2022-07-29T06:19:36;19.40;99.90
28677;DHT22;15858;48.338;11.078;2022-07-29T06:22:03;19.50;99.90
28677;DHT22;15858;48.338;11.078;2022-07-29T06:24:30;19.30;99.90
28677;DHT22;15858;48.338;11.078;2022-07-29T06:26:57;19.50;99.90
28677;DHT22;15858;48.338;11.078;2022-07-29T06:29:23;19.70;99.90
28677;DHT22;15858;48.338;11.078;2022-07-29T06:31:50;19.50;99.90
28677;DHT22;15858;48.338;11.078;2022-07-29T06:34:17;19.70;99.90
28677;DHT22;15858;48.338;11.078;2022-07-29T06:36:44;19.60;99.90
28677;DHT22;15858;48.338;11.078;2022-07-29T06:39:11;19.70;99.90
28677;DHT22;15858;48.338;11.078;2022-07-29T06:41:38;19.80;99.90
28677;DHT22;15858;48.338;11.078;2022-07-29T06:44:05;19.90;99.90
28677;DHT22;15858;48.338;11.078;2022-07-29T06:46:31;20.10;99.90
28677;DHT22;15858;48.338;11.078;2022-07-29T06:48:59;20.20;99.90
28677;DHT22;15858;48.338;11.078;2022-07-29T06:51:25;20.20;99.90
28677;DHT22;15858;48.338;11.078;2022-07-29T06:53:52;20.30;99.90
28677;DHT22;15858;48.338;11.078;2022-07-29T06:56:26;20.50;99.90
28677;DHT22;15858;48.338;11.078;2022-07-29T06:58:53;20.60;99.90
28677;DHT22;15858;48.338;11.078;2022-07-29T07:01:19;20.70;99.90
28677;DHT22;15858;48.338;11.078;2022-07-29T07:03:48;20.70;99.90
28677;DHT22;15858;48.338;11.078;2022-07-29T07:06:15;20.70;99.90
28677;DHT22;15858;48.338;11.078;2022-07-29T07:08:41;20.80;99.90
28677;DHT22;15858;48.338;11.078;2022-07-29T07:11:08;20.70;99.90
28677;DHT22;15858;48.338;11.078;2022-07-29T07:13:35;20.80;99.90
28677;DHT22;15858;48.338;11.078;2022-07-29T07:16:03;20.90;99.90
28677;DHT22;15858;48.338;11.078;2022-07-29T07:18:30;21.00;99.90
28677;DHT22;15858;48.338;11.078;2022-07-29T07:20:57;21.10;99.90
28677;DHT22;15858;48.338;11.078;2022-07-29T07:23:23;21.10;99.90
28677;DHT22;15858;48.338;11.078;2022-07-29T07:25:50;21.20;99.90
28677;DHT22;15858;48.338;11.078;2022-07-29T07:28:17;21.30;99.90
28677;DHT22;15858;48.338;11.078;2022-07-29T07:30:49;21.30;99.90
28677;DHT22;15858;48.338;11.078;2022-07-29T07:33:16;21.30;99.90
28677;DHT22;15858;48.338;11.078;2022-07-29T07:35:43;21.50;99.90
28677;DHT22;15858;48.338;11.078;2022-07-29T07:38:09;21.60;99.90
28677;DHT22;15858;48.338;11.078;2022-07-29T07:40:36;21.70;99.90
28677;DHT22;15858;48.338;11.078;2022-07-29T07:43:03;21.70;99.90
28677;DHT22;15858;48.338;11.078;2022-07-29T07:45:30;21.70;99.90
28677;DHT22;15858;48.338;11.078;2022-07-29T07:47:57;21.80;99.90
28677;DHT22;15858;48.338;11.078;2022-07-29T07:50:23;21.90;99.90
28677;DHT22;15858;48.338;11.078;2022-07-29T07:52:52;21.80;99.90
28677;DHT22;15858;48.338;11.078;2022-07-29T07:55:19;21.90;99.90
28677;DHT22;15858;48.338;11.078;2022-07-29T07:57:47;22.00;99.90
28677;DHT22;15858;48.338;11.078;2022-07-29T08:00:14;22.10;99.90
28677;DHT22;15858;48.338;11.078;2022-07-29T08:02:42;22.10;99.90
28677;DHT22;15858;48.338;11.078;2022-07-29T08:05:09;22.20;99.90
28677;DHT22;15858;48.338;11.078;2022-07-29T08:07:38;22.30;99.90
28677;DHT22;15858;48.338;11.078;2022-07-29T08:10:05;22.40;99.90
28677;DHT22;15858;48.338;11.078;2022-07-29T08:12:32;22.40;99.90
28677;DHT22;15858;48.338;11.078;2022-07-29T08:14:59;22.50;99.90
28677;DHT22;15858;48.338;11.078;2022-07-29T08:17:25;22.60;99.90
28677;DHT22;15858;48.338;11.078;2022-07-29T08:19:52;22.60;99.90
28677;DHT22;15858;48.338;11.078;2022-07-29T08:22:19;22.60;99.90
28677;DHT22;15858;48.338;11.078;2022-07-29T08:24:45;22.60;99.90
28677;DHT22;15858;48.338;11.078;2022-07-29T08:27:13;22.50;99.90
28677;DHT22;15858;48.338;11.078;2022-07-29T08:30:00;22.30;99.90
28677;DHT22;15858;48.338;11.078;2022-07-29T08:32:26;22.40;99.90
28677;DHT22;15858;48.338;11.078;2022-07-29T08:35:13;22.40;99.90
28677;DHT22;15858;48.338;11.078;2022-07-29T08:37:39;22.40;99.90
28677;DHT22;15858;48.338;11.078;2022-07-29T08:40:06;22.50;99.90
28677;DHT22;15858;48.338;11.078;2022-07-29T08:42:33;22.70;99.90
28677;DHT22;15858;48.338;11.078;2022-07-29T08:45:00;22.70;99.90
28677;DHT22;15858;48.338;11.078;2022-07-29T08:47:27;22.80;99.90
28677;DHT22;15858;48.338;11.078;2022-07-29T08:49:54;22.70;99.90
28677;DHT22;15858;48.338;11.078;2022-07-29T08:52:21;22.70;99.90
28677;DHT22;15858;48.338;11.078;2022-07-29T08:54:52;22.70;99.90
28677;DHT22;15858;48.338;11.078;2022-07-29T08:57:20;22.60;99.90
28677;DHT22;15858;48.338;11.078;2022-07-29T08:59:50;22.60;99.90
28677;DHT22;15858;48.338;11.078;2022-07-29T09:02:21;22.70;99.90
28677;DHT22;15858;48.338;11.078;2022-07-29T09:04:49;22.80;99.90
28677;DHT22;15858;48.338;11.078;2022-07-29T09:07:18;22.80;99.90
28677;DHT22;15858;48.338;11.078;2022-07-29T09:09:44;22.80;99.90
28677;DHT22;15858;48.338;11.078;2022-07-29T09:12:12;22.80;99.90
28677;DHT22;15858;48.338;11.078;2022-07-29T09:14:55;22.80;99.90
28677;DHT22;15858;48.338;11.078;2022-07-29T09:17:44;22.80;99.90
28677;DHT22;15858;48.338;11.078;2022-07-29T09:20:21;22.80;99.90
28677;DHT22;15858;48.338;11.078;2022-07-29T09:22:49;22.80;99.90
28677;DHT22;15858;48.338;11.078;2022-07-29T09:25:35;22.90;99.90
28677;DHT22;15858;48.338;11.078;2022-07-29T09:30:33;23.30;99.90
28677;DHT22;15858;48.338;11.078;2022-07-29T09:33:02;23.20;99.90
28677;DHT22;15858;48.338;11.078;2022-07-29T09:35:30;23.20;99.90
28677;DHT22;15858;48.338;11.078;2022-07-29T09:37:57;23.30;99.90
28677;DHT22;15858;48.338;11.078;2022-07-29T09:40:26;23.40;99.90
28677;DHT22;15858;48.338;11.078;2022-07-29T09:42:54;23.40;99.90
28677;DHT22;15858;48.338;11.078;2022-07-29T09:47:54;23.50;99.90
28677;DHT22;15858;48.338;11.078;2022-07-29T09:50:21;23.50;99.90
28677;DHT22;15858;48.338;11.078;2022-07-29T09:52:50;23.50;99.90
28677;DHT22;15858;48.338;11.078;2022-07-29T09:55:17;23.80;99.90
28677;DHT22;15858;48.338;11.078;2022-07-29T09:57:46;23.90;99.90
28677;DHT22;15858;48.338;11.078;2022-07-29T10:00:16;23.90;99.90
28677;DHT22;15858;48.338;11.078;2022-07-29T10:02:44;24.10;99.90
28677;DHT22;15858;48.338;11.078;2022-07-29T10:05:33;24.30;99.90
28677;DHT22;15858;48.338;11.078;2022-07-29T10:08:02;24.50;99.90
28677;DHT22;15858;48.338;11.078;2022-07-29T10:10:31;24.70;99.90
28677;DHT22;15858;48.338;11.078;2022-07-29T10:13:11;24.60;99.90
28677;DHT22;15858;48.338;11.078;2022-07-29T10:15:43;24.70;99.90
28677;DHT22;15858;48.338;11.078;2022-07-29T10:18:12;24.80;99.90
28677;DHT22;15858;48.338;11.078;2022-07-29T10:20:40;24.80;99.90
28677;DHT22;15858;48.338;11.078;2022-07-29T10:23:06;24.80;99.90
28677;DHT22;15858;48.338;11.078;2022-07-29T10:25:33;24.90;99.90
28677;DHT22;15858;48.338;11.078;2022-07-29T10:28:00;25.10;99.90
28677;DHT22;15858;48.338;11.078;2022-07-29T10:30:27;25.00;99.90
28677;DHT22;15858;48.338;11.078;2022-07-29T10:33:21;25.00;99.90
28677;DHT22;15858;48.338;11.078;2022-07-29T10:36:02;25.10;99.90
28677;DHT22;15858;48.338;11.078;2022-07-29T10:41:08;25.10;99.90
28677;DHT22;15858;48.338;11.078;2022-07-29T10:43:46;25.10;99.90
28677;DHT22;15858;48.338;11.078;2022-07-29T10:46:17;25.20;99.90
28677;DHT22;15858;48.338;11.078;2022-07-29T10:49:04;25.10;99.90
28677;DHT22;15858;48.338;11.078;2022-07-29T10:51:53;25.20;99.90
28677;DHT22;15858;48.338;11.078;2022-07-29T10:54:42;25.40;99.90
28677;DHT22;15858;48.338;11.078;2022-07-29T10:57:22;25.60;99.90
28677;DHT22;15858;48.338;11.078;2022-07-29T11:02:44;26.00;99.90
28677;DHT22;15858;48.338;11.078;2022-07-29T11:05:12;26.40;99.90
28677;DHT22;15858;48.338;11.078;2022-07-29T11:08:16;26.40;99.90
28677;DHT22;15858;48.338;11.078;2022-07-29T11:10:27;26.60;99.90
28677;DHT22;15858;48.338;11.078;2022-07-29T11:12:57;26.70;99.90
28677;DHT22;15858;48.338;11.078;2022-07-29T11:15:24;26.80;99.90
28677;DHT22;15858;48.338;11.078;2022-07-29T11:20:43;27.00;99.90
28677;DHT22;15858;48.338;11.078;2022-07-29T11:31:10;27.50;99.90
28677;DHT22;15858;48.338;11.078;2022-07-29T11:33:37;27.60;99.90
28677;DHT22;15858;48.338;11.078;2022-07-29T11:36:22;27.70;99.90
28677;DHT22;15858;48.338;11.078;2022-07-29T11:39:26;27.90;99.90
28677;DHT22;15858;48.338;11.078;2022-07-29T11:47:55;28.00;96.20
28677;DHT22;15858;48.338;11.078;2022-07-29T11:50:34;28.30;97.60
28677;DHT22;15858;48.338;11.078;2022-07-29T11:53:12;28.30;94.90
28677;DHT22;15858;48.338;11.078;2022-07-29T11:55:40;28.50;94.80
28677;DHT22;15858;48.338;11.078;2022-07-29T11:58:21;28.20;93.30
28677;DHT22;15858;48.338;11.078;2022-07-29T12:00:51;28.30;93.00
28677;DHT22;15858;48.338;11.078;2022-07-29T12:03:28;28.40;90.00
28677;DHT22;15858;48.338;11.078;2022-07-29T12:06:01;28.50;91.20
28677;DHT22;15858;48.338;11.078;2022-07-29T12:08:29;28.50;91.10
28677;DHT22;15858;48.338;11.078;2022-07-29T12:10:56;28.50;90.20
28677;DHT22;15858;48.338;11.078;2022-07-29T12:13:22;28.40;91.60
28677;DHT22;15858;48.338;11.078;2022-07-29T12:16:03;28.40;91.10
28677;DHT22;15858;48.338;11.078;2022-07-29T12:18:31;28.30;91.30
28677;DHT22;15858;48.338;11.078;2022-07-29T12:21:00;28.20;91.00
28677;DHT22;15858;48.338;11.078;2022-07-29T12:23:32;28.20;92.70
28677;DHT22;15858;48.338;11.078;2022-07-29T12:26:04;28.30;92.10
28677;DHT22;15858;48.338;11.078;2022-07-29T12:28:39;28.20;91.20
28677;DHT22;15858;48.338;11.078;2022-07-29T12:31:11;28.00;90.40
28677;DHT22;15858;48.338;11.078;2022-07-29T12:33:39;28.00;89.40
28677;DHT22;15858;48.338;11.078;2022-07-29T12:36:06;28.10;87.30
28677;DHT22;15858;48.338;11.078;2022-07-29T12:38:42;27.90;88.40
28677;DHT22;15858;48.338;11.078;2022-07-29T12:41:10;27.80;88.20
28677;DHT22;15858;48.338;11.078;2022-07-29T12:43:36;27.80;87.90
28677;DHT22;15858;48.338;11.078;2022-07-29T12:46:14;27.80;87.70
28677;DHT22;15858;48.338;11.078;2022-07-29T12:48:43;27.50;88.60
28677;DHT22;15858;48.338;11.078;2022-07-29T12:51:11;27.30;85.70
28677;DHT22;15858;48.338;11.078;2022-07-29T12:53:38;27.20;87.40
28677;DHT22;15858;48.338;11.078;2022-07-29T12:56:06;27.30;87.70
28677;DHT22;15858;48.338;11.078;2022-07-29T12:58:52;27.20;87.70
28677;DHT22;15858;48.338;11.078;2022-07-29T13:01:21;27.10;89.70
28677;DHT22;15858;48.338;11.078;2022-07-29T13:03:54;27.20;90.30
28677;DHT22;15858;48.338;11.078;2022-07-29T13:06:34;27.00;89.20
28677;DHT22;15858;48.338;11.078;2022-07-29T13:09:05;26.80;90.10
28677;DHT22;15858;48.338;11.078;2022-07-29T13:11:40;26.60;90.60
28677;DHT22;15858;48.338;11.078;2022-07-29T13:14:31;26.50;90.90
28677;DHT22;15858;48.338;11.078;2022-07-29T13:17:05;26.30;91.60
28677;DHT22;15858;48.338;11.078;2022-07-29T13:19:44;26.30;92.00
28677;DHT22;15858;48.338;11.078;2022-07-29T13:22:13;26.10;92.00
28677;DHT22;15858;48.338;11.078;2022-07-29T13:25:06;26.10;92.50
28677;DHT22;15858;48.338;11.078;2022-07-29T13:27:36;26.00;91.90
28677;DHT22;15858;48.338;11.078;2022-07-29T13:30:05;25.90;93.40
28677;DHT22;15858;48.338;11.078;2022-07-29T13:32:32;25.90;94.10
28677;DHT22;15858;48.338;11.078;2022-07-29T13:35:03;25.90;94.70
28677;DHT22;15858;48.338;11.078;2022-07-29T13:37:32;26.00;95.10
28677;DHT22;15858;48.338;11.078;2022-07-29T13:39:58;26.00;95.10
28677;DHT22;15858;48.338;11.078;2022-07-29T13:42:26;26.10;93.80
28677;DHT22;15858;48.338;11.078;2022-07-29T13:44:52;25.90;92.10
28677;DHT22;15858;48.338;11.078;2022-07-29T13:47:20;25.80;91.60
28677;DHT22;15858;48.338;11.078;2022-07-29T13:49:47;25.70;91.30
28677;DHT22;15858;48.338;11.078;2022-07-29T13:52:14;25.70;91.40
28677;DHT22;15858;48.338;11.078;2022-07-29T13:54:42;25.70;91.30
28677;DHT22;15858;48.338;11.078;2022-07-29T13:57:09;25.60;91.70
28677;DHT22;15858;48.338;11.078;2022-07-29T13:59:36;25.50;92.20
28677;DHT22;15858;48.338;11.078;2022-07-29T14:02:03;25.50;93.10
28677;DHT22;15858;48.338;11.078;2022-07-29T14:04:30;25.60;93.40
28677;DHT22;15858;48.338;11.078;2022-07-29T14:06:56;25.70;93.00
28677;DHT22;15858;48.338;11.078;2022-07-29T14:09:23;25.70;93.20
28677;DHT22;15858;48.338;11.078;2022-07-29T14:11:50;25.80;93.30
28677;DHT22;15858;48.338;11.078;2022-07-29T14:14:17;25.90;93.80
28677;DHT22;15858;48.338;11.078;2022-07-29T14:16:43;25.90;93.90
28677;DHT22;15858;48.338;11.078;2022-07-29T14:19:16;25.90;93.10
28677;DHT22;15858;48.338;11.078;2022-07-29T14:21:42;25.80;92.10
28677;DHT22;15858;48.338;11.078;2022-07-29T14:24:11;25.90;92.20
28677;DHT22;15858;48.338;11.078;2022-07-29T14:26:47;26.10;92.00
28677;DHT22;15858;48.338;11.078;2022-07-29T14:29:13;26.20;91.70
28677;DHT22;15858;48.338;11.078;2022-07-29T14:31:40;26.30;91.70
28677;DHT22;15858;48.338;11.078;2022-07-29T14:34:07;26.40;90.50
28677;DHT22;15858;48.338;11.078;2022-07-29T14:36:34;26.30;90.90
28677;DHT22;15858;48.338;11.078;2022-07-29T14:39:00;26.30;91.10
28677;DHT22;15858;48.338;11.078;2022-07-29T14:41:27;26.20;90.30
28677;DHT22;15858;48.338;11.078;2022-07-29T14:43:54;26.10;90.40
28677;DHT22;15858;48.338;11.078;2022-07-29T14:46:20;26.10;90.50
28677;DHT22;15858;48.338;11.078;2022-07-29T14:48:47;26.30;90.80
28677;DHT22;15858;48.338;11.078;2022-07-29T14:51:14;26.30;91.10
28677;DHT22;15858;48.338;11.078;2022-07-29T14:53:40;26.40;91.80
28677;DHT22;15858;48.338;11.078;2022-07-29T14:56:07;26.30;91.60
28677;DHT22;15858;48.338;11.078;2022-07-29T14:58:54;26.20;91.20
28677;DHT22;15858;48.338;11.078;2022-07-29T15:01:20;26.10;91.30
28677;DHT22;15858;48.338;11.078;2022-07-29T15:03:47;26.00;91.00
28677;DHT22;15858;48.338;11.078;2022-07-29T15:06:14;26.00;91.80
28677;DHT22;15858;48.338;11.078;2022-07-29T15:08:40;26.10;91.80
28677;DHT22;15858;48.338;11.078;2022-07-29T15:11:07;26.00;91.80
28677;DHT22;15858;48.338;11.078;2022-07-29T15:13:34;26.00;91.10
28677;DHT22;15858;48.338;11.078;2022-07-29T15:16:01;25.90;90.50
28677;DHT22;15858;48.338;11.078;2022-07-29T15:18:28;25.80;91.00
28677;DHT22;15858;48.338;11.078;2022-07-29T15:20:54;25.80;90.70
28677;DHT22;15858;48.338;11.078;2022-07-29T15:23:21;25.80;90.30
28677;DHT22;15858;48.338;11.078;2022-07-29T15:25:47;25.80;90.70
28677;DHT22;15858;48.338;11.078;2022-07-29T15:28:14;26.00;91.00
28677;DHT22;15858;48.338;11.078;2022-07-29T15:30:41;26.00;90.30
28677;DHT22;15858;48.338;11.078;2022-07-29T15:33:08;26.00;90.40
28677;DHT22;15858;48.338;11.078;2022-07-29T15:35:36;26.10;91.20
28677;DHT22;15858;48.338;11.078;2022-07-29T15:38:06;26.00;91.40
28677;DHT22;15858;48.338;11.078;2022-07-29T15:40:33;26.00;91.60
28677;DHT22;15858;48.338;11.078;2022-07-29T15:43:03;26.00;91.60
28677;DHT22;15858;48.338;11.078;2022-07-29T15:45:35;26.00;91.50
28677;DHT22;15858;48.338;11.078;2022-07-29T15:48:07;25.90;91.20
28677;DHT22;15858;48.338;11.078;2022-07-29T15:50:34;25.90;91.60
28677;DHT22;15858;48.338;11.078;2022-07-29T15:53:01;25.90;91.30
28677;DHT22;15858;48.338;11.078;2022-07-29T15:55:28;25.90;91.40
28677;DHT22;15858;48.338;11.078;2022-07-29T15:57:55;25.90;91.60
28677;DHT22;15858;48.338;11.078;2022-07-29T16:00:26;25.80;91.70
28677;DHT22;15858;48.338;11.078;2022-07-29T16:02:52;25.70;92.30
28677;DHT22;15858;48.338;11.078;2022-07-29T16:05:19;25.60;92.50
28677;DHT22;15858;48.338;11.078;2022-07-29T16:07:46;25.60;92.80
28677;DHT22;15858;48.338;11.078;2022-07-29T16:10:12;25.50;93.00
28677;DHT22;15858;48.338;11.078;2022-07-29T16:12:39;25.50;93.10